map of NVT home
Great Circle Mapper logo
NVT - Airport
Location
City:  Navegantes, Santa Catarina, Brazil
Name:Ministro Victor Konder International Airport
ICAO / IATA:SBNF / NVT

Details
Type:Airport (Aerodrome, Airfield)
Use:International (customs port of entry)
Latitude:2652'48"S (-26.879998)
Longitude:4839'05"W (-48.651389)
Datum:WGS 1984
Elevation:18 ft (5 m)
Runways:1
Longest:5581 × 148 ft (1701 × 45 m), paved

Time
Time Zone:UTC-3 (DST-2)
Local Time:

Weather
METAR:SBNF 230300Z 24005KT 9999 SCT020 17/14 Q1021

Related Locations
Nearby:
Farthest:KTD: 12365 mi / 19900 km
Kitadaito, Kita Daito Island, JP

Find:

   beyond  
but within

Other Information
Maps:
NOTAMs:
Links:
Sources:

  
flag of Brazil
flag of Santa Catarina
  

Sectional Chart

Flight Planning
at skyvector.com

Satellite Image

Google Maps Satellite View

 

Copyright © 2004-2014 Karl L. Swartz. All rights reserved.
The Great Circle Mapper name and logo are trademarks of the Great Circle Mapper.
All other trademarks mentioned herein belong to their respective owners.
Please see credits for attibutions and further copyright information.

  Follow gcmap on Facebook Follow gcmap on Twitter

hCard Microformat

Geo Microformat